sensor_id;sensor_type;location;lat;lon;timestamp;temperature;humidity
21612;DHT22;47005;52.292;13.452;2023-03-25T00:00:55;11.00;99.90
21612;DHT22;47005;52.292;13.452;2023-03-25T00:03:26;11.00;99.90
21612;DHT22;47005;52.292;13.452;2023-03-25T00:05:53;10.90;99.90
21612;DHT22;47005;52.292;13.452;2023-03-25T00:08:19;10.90;99.90
21612;DHT22;47005;52.292;13.452;2023-03-25T00:10:45;10.90;99.90
21612;DHT22;47005;52.292;13.452;2023-03-25T00:13:15;10.90;99.90
21612;DHT22;47005;52.292;13.452;2023-03-25T00:15:42;10.90;99.90
21612;DHT22;47005;52.292;13.452;2023-03-25T00:18:11;10.90;99.90
21612;DHT22;47005;52.292;13.452;2023-03-25T00:20:36;10.80;99.90
21612;DHT22;47005;52.292;13.452;2023-03-25T00:23:07;10.80;99.90
21612;DHT22;47005;52.292;13.452;2023-03-25T00:25:33;10.80;99.90
21612;DHT22;47005;52.292;13.452;2023-03-25T00:27:59;10.80;99.90
21612;DHT22;47005;52.292;13.452;2023-03-25T00:30:25;10.80;99.90
21612;DHT22;47005;52.292;13.452;2023-03-25T00:32:51;10.80;99.90
21612;DHT22;47005;52.292;13.452;2023-03-25T00:35:22;10.80;99.90
21612;DHT22;47005;52.292;13.452;2023-03-25T00:37:50;10.90;99.90
21612;DHT22;47005;52.292;13.452;2023-03-25T00:40:25;10.90;99.90
21612;DHT22;47005;52.292;13.452;2023-03-25T00:42:53;10.90;99.90
21612;DHT22;47005;52.292;13.452;2023-03-25T00:45:19;10.90;99.90
21612;DHT22;47005;52.292;13.452;2023-03-25T00:47:44;10.90;99.90
21612;DHT22;47005;52.292;13.452;2023-03-25T00:50:10;10.90;99.90
21612;DHT22;47005;52.292;13.452;2023-03-25T00:52:36;10.90;99.90
21612;DHT22;47005;52.292;13.452;2023-03-25T00:55:02;10.90;99.90
21612;DHT22;47005;52.292;13.452;2023-03-25T00:57:29;10.90;99.90
21612;DHT22;47005;52.292;13.452;2023-03-25T00:59:55;10.90;99.90
21612;DHT22;47005;52.292;13.452;2023-03-25T01:02:22;10.90;99.90
21612;DHT22;47005;52.292;13.452;2023-03-25T01:04:48;10.90;99.90
21612;DHT22;47005;52.292;13.452;2023-03-25T01:07:23;10.90;99.90
21612;DHT22;47005;52.292;13.452;2023-03-25T01:09:48;10.80;99.90
21612;DHT22;47005;52.292;13.452;2023-03-25T01:12:16;10.80;99.90
21612;DHT22;47005;52.292;13.452;2023-03-25T01:14:43;10.80;99.90
21612;DHT22;47005;52.292;13.452;2023-03-25T01:17:09;10.80;99.90
21612;DHT22;47005;52.292;13.452;2023-03-25T01:19:35;10.80;99.90
21612;DHT22;47005;52.292;13.452;2023-03-25T01:22:01;10.80;99.90
21612;DHT22;47005;52.292;13.452;2023-03-25T01:24:26;10.70;99.90
21612;DHT22;47005;52.292;13.452;2023-03-25T01:26:52;10.70;99.90
21612;DHT22;47005;52.292;13.452;2023-03-25T01:29:19;10.70;99.90
21612;DHT22;47005;52.292;13.452;2023-03-25T01:31:45;10.70;99.90
21612;DHT22;47005;52.292;13.452;2023-03-25T01:34:12;10.60;99.90
21612;DHT22;47005;52.292;13.452;2023-03-25T01:36:38;10.60;99.90
21612;DHT22;47005;52.292;13.452;2023-03-25T01:39:06;10.60;99.90
21612;DHT22;47005;52.292;13.452;2023-03-25T01:41:33;10.60;99.90
21612;DHT22;47005;52.292;13.452;2023-03-25T01:46:55;10.60;99.90
21612;DHT22;47005;52.292;13.452;2023-03-25T01:49:25;10.50;99.90
21612;DHT22;47005;52.292;13.452;2023-03-25T01:52:13;10.50;99.90
21612;DHT22;47005;52.292;13.452;2023-03-25T01:54:41;10.50;99.90
21612;DHT22;47005;52.292;13.452;2023-03-25T01:57:09;10.50;99.90
21612;DHT22;47005;52.292;13.452;2023-03-25T01:59:37;10.50;99.90
21612;DHT22;47005;52.292;13.452;2023-03-25T02:02:05;10.50;99.90
21612;DHT22;47005;52.292;13.452;2023-03-25T02:04:42;10.40;99.90
21612;DHT22;47005;52.292;13.452;2023-03-25T02:07:11;10.40;99.90
21612;DHT22;47005;52.292;13.452;2023-03-25T02:09:40;10.40;99.90
21612;DHT22;47005;52.292;13.452;2023-03-25T02:12:07;10.40;99.90
21612;DHT22;47005;52.292;13.452;2023-03-25T02:14:35;10.50;99.90
21612;DHT22;47005;52.292;13.452;2023-03-25T02:29:17;10.50;99.90
21612;DHT22;47005;52.292;13.452;2023-03-25T02:35:00;10.50;99.90
21612;DHT22;47005;52.292;13.452;2023-03-25T02:40:20;10.50;99.90
21612;DHT22;47005;52.292;13.452;2023-03-25T02:45:26;10.60;99.90
21612;DHT22;47005;52.292;13.452;2023-03-25T02:48:00;10.50;99.90
21612;DHT22;47005;52.292;13.452;2023-03-25T02:50:41;10.60;99.90
21612;DHT22;47005;52.292;13.452;2023-03-25T02:53:10;10.60;99.90
21612;DHT22;47005;52.292;13.452;2023-03-25T02:55:38;10.60;99.90
21612;DHT22;47005;52.292;13.452;2023-03-25T02:58:08;10.60;99.90
21612;DHT22;47005;52.292;13.452;2023-03-25T03:00:35;10.60;99.90
21612;DHT22;47005;52.292;13.452;2023-03-25T03:03:04;10.60;99.90
21612;DHT22;47005;52.292;13.452;2023-03-25T03:05:34;10.60;99.90
21612;DHT22;47005;52.292;13.452;2023-03-25T03:08:11;10.60;99.90
21612;DHT22;47005;52.292;13.452;2023-03-25T03:21:54;10.70;99.90
21612;DHT22;47005;52.292;13.452;2023-03-25T03:24:31;10.70;99.90
21612;DHT22;47005;52.292;13.452;2023-03-25T03:30:11;10.70;99.90
21612;DHT22;47005;52.292;13.452;2023-03-25T03:35:17;10.70;99.90
21612;DHT22;47005;52.292;13.452;2023-03-25T03:37:50;10.70;99.90
21612;DHT22;47005;52.292;13.452;2023-03-25T03:40:18;10.60;99.90
21612;DHT22;47005;52.292;13.452;2023-03-25T03:43:06;10.60;99.90
21612;DHT22;47005;52.292;13.452;2023-03-25T03:45:39;10.60;99.90
21612;DHT22;47005;52.292;13.452;2023-03-25T03:48:18;10.60;99.90
21612;DHT22;47005;52.292;13.452;2023-03-25T03:50:52;10.60;99.90
21612;DHT22;47005;52.292;13.452;2023-03-25T03:56:25;10.60;99.90
21612;DHT22;47005;52.292;13.452;2023-03-25T03:58:56;10.60;99.90
21612;DHT22;47005;52.292;13.452;2023-03-25T04:01:59;10.60;99.90
21612;DHT22;47005;52.292;13.452;2023-03-25T04:04:26;10.60;99.90
21612;DHT22;47005;52.292;13.452;2023-03-25T04:10:09;10.60;99.90
21612;DHT22;47005;52.292;13.452;2023-03-25T04:12:50;10.60;99.90
21612;DHT22;47005;52.292;13.452;2023-03-25T04:15:17;10.60;99.90
21612;DHT22;47005;52.292;13.452;2023-03-25T04:17:43;10.60;99.90
21612;DHT22;47005;52.292;13.452;2023-03-25T04:20:22;10.60;99.90
21612;DHT22;47005;52.292;13.452;2023-03-25T04:22:49;10.60;99.90
21612;DHT22;47005;52.292;13.452;2023-03-25T04:25:16;10.70;99.90
21612;DHT22;47005;52.292;13.452;2023-03-25T04:27:42;10.60;99.90
21612;DHT22;47005;52.292;13.452;2023-03-25T04:30:14;10.70;99.90
21612;DHT22;47005;52.292;13.452;2023-03-25T04:32:42;10.70;99.90
21612;DHT22;47005;52.292;13.452;2023-03-25T04:35:15;10.70;99.90
21612;DHT22;47005;52.292;13.452;2023-03-25T04:37:41;10.70;99.90
21612;DHT22;47005;52.292;13.452;2023-03-25T04:40:11;10.70;99.90
21612;DHT22;47005;52.292;13.452;2023-03-25T04:42:38;10.70;99.90
21612;DHT22;47005;52.292;13.452;2023-03-25T04:45:08;10.70;99.90
21612;DHT22;47005;52.292;13.452;2023-03-25T04:47:39;10.70;99.90
21612;DHT22;47005;52.292;13.452;2023-03-25T04:50:29;10.70;99.90
21612;DHT22;47005;52.292;13.452;2023-03-25T04:52:56;10.70;99.90
21612;DHT22;47005;52.292;13.452;2023-03-25T04:55:23;10.70;99.90
21612;DHT22;47005;52.292;13.452;2023-03-25T04:57:51;10.60;99.90
21612;DHT22;47005;52.292;13.452;2023-03-25T05:00:22;10.60;99.90
21612;DHT22;47005;52.292;13.452;2023-03-25T05:02:50;10.60;99.90
21612;DHT22;47005;52.292;13.452;2023-03-25T05:05:18;10.60;99.90
21612;DHT22;47005;52.292;13.452;2023-03-25T05:07:45;10.60;99.90
21612;DHT22;47005;52.292;13.452;2023-03-25T05:10:12;10.50;99.90
21612;DHT22;47005;52.292;13.452;2023-03-25T05:12:38;10.50;99.90
21612;DHT22;47005;52.292;13.452;2023-03-25T05:15:04;10.50;99.90
21612;DHT22;47005;52.292;13.452;2023-03-25T05:17:30;10.50;99.90
21612;DHT22;47005;52.292;13.452;2023-03-25T05:19:56;10.50;99.90
21612;DHT22;47005;52.292;13.452;2023-03-25T05:22:22;10.50;99.90
21612;DHT22;47005;52.292;13.452;2023-03-25T05:24:48;10.50;99.90
21612;DHT22;47005;52.292;13.452;2023-03-25T05:27:18;10.50;99.90
21612;DHT22;47005;52.292;13.452;2023-03-25T05:29:45;10.40;99.90
21612;DHT22;47005;52.292;13.452;2023-03-25T05:32:10;10.40;99.90
21612;DHT22;47005;52.292;13.452;2023-03-25T05:34:38;10.40;99.90
21612;DHT22;47005;52.292;13.452;2023-03-25T05:37:04;10.40;99.90
21612;DHT22;47005;52.292;13.452;2023-03-25T05:39:30;10.40;99.90
21612;DHT22;47005;52.292;13.452;2023-03-25T05:41:56;10.40;99.90
21612;DHT22;47005;52.292;13.452;2023-03-25T05:44:27;10.40;99.90
21612;DHT22;47005;52.292;13.452;2023-03-25T05:46:53;10.40;99.90
21612;DHT22;47005;52.292;13.452;2023-03-25T05:49:19;10.40;99.90
21612;DHT22;47005;52.292;13.452;2023-03-25T05:51:46;10.40;99.90
21612;DHT22;47005;52.292;13.452;2023-03-25T05:54:14;10.40;99.90
21612;DHT22;47005;52.292;13.452;2023-03-25T05:56:40;10.40;99.90
21612;DHT22;47005;52.292;13.452;2023-03-25T05:59:07;10.40;99.90
21612;DHT22;47005;52.292;13.452;2023-03-25T06:01:35;10.50;99.90
21612;DHT22;47005;52.292;13.452;2023-03-25T06:04:03;10.50;99.90
21612;DHT22;47005;52.292;13.452;2023-03-25T06:06:30;10.50;99.90
21612;DHT22;47005;52.292;13.452;2023-03-25T06:08:58;10.50;99.90
21612;DHT22;47005;52.292;13.452;2023-03-25T06:11:23;10.50;99.90
21612;DHT22;47005;52.292;13.452;2023-03-25T06:13:50;10.50;99.90
21612;DHT22;47005;52.292;13.452;2023-03-25T06:16:20;10.60;99.90
21612;DHT22;47005;52.292;13.452;2023-03-25T06:18:48;10.50;99.90
21612;DHT22;47005;52.292;13.452;2023-03-25T06:21:21;10.60;99.90
21612;DHT22;47005;52.292;13.452;2023-03-25T06:23:48;10.60;99.90
21612;DHT22;47005;52.292;13.452;2023-03-25T06:26:18;10.60;99.90
21612;DHT22;47005;52.292;13.452;2023-03-25T06:28:45;10.60;99.90
21612;DHT22;47005;52.292;13.452;2023-03-25T06:31:14;10.50;99.90
21612;DHT22;47005;52.292;13.452;2023-03-25T06:33:42;10.50;99.90
21612;DHT22;47005;52.292;13.452;2023-03-25T06:36:09;10.50;99.90
21612;DHT22;47005;52.292;13.452;2023-03-25T06:38:36;10.40;99.90
21612;DHT22;47005;52.292;13.452;2023-03-25T06:41:02;10.40;99.90
21612;DHT22;47005;52.292;13.452;2023-03-25T06:43:27;10.40;99.90
21612;DHT22;47005;52.292;13.452;2023-03-25T06:45:53;10.40;99.90
21612;DHT22;47005;52.292;13.452;2023-03-25T06:48:19;10.40;99.90
21612;DHT22;47005;52.292;13.452;2023-03-25T06:50:44;10.40;99.90
21612;DHT22;47005;52.292;13.452;2023-03-25T06:53:10;10.40;99.90
21612;DHT22;47005;52.292;13.452;2023-03-25T06:55:36;10.40;99.90
21612;DHT22;47005;52.292;13.452;2023-03-25T06:58:03;10.50;99.90
21612;DHT22;47005;52.292;13.452;2023-03-25T07:00:30;10.50;99.90
21612;DHT22;47005;52.292;13.452;2023-03-25T07:02:55;10.50;99.90
21612;DHT22;47005;52.292;13.452;2023-03-25T07:05:23;10.50;99.90
21612;DHT22;47005;52.292;13.452;2023-03-25T07:07:49;10.60;99.90
21612;DHT22;47005;52.292;13.452;2023-03-25T07:10:15;10.60;99.90
21612;DHT22;47005;52.292;13.452;2023-03-25T07:12:40;10.70;99.90
21612;DHT22;47005;52.292;13.452;2023-03-25T07:15:06;10.70;99.90
21612;DHT22;47005;52.292;13.452;2023-03-25T07:17:32;10.70;99.90
21612;DHT22;47005;52.292;13.452;2023-03-25T07:19:58;10.70;99.90
21612;DHT22;47005;52.292;13.452;2023-03-25T07:22:24;10.80;99.90
21612;DHT22;47005;52.292;13.452;2023-03-25T07:24:49;10.80;99.90
21612;DHT22;47005;52.292;13.452;2023-03-25T07:27:16;10.80;99.90
21612;DHT22;47005;52.292;13.452;2023-03-25T07:29:42;10.80;99.90
21612;DHT22;47005;52.292;13.452;2023-03-25T07:32:08;10.80;99.90
21612;DHT22;47005;52.292;13.452;2023-03-25T07:34:33;10.80;99.90
21612;DHT22;47005;52.292;13.452;2023-03-25T07:36:59;10.90;99.90
21612;DHT22;47005;52.292;13.452;2023-03-25T07:39:25;10.90;99.90
21612;DHT22;47005;52.292;13.452;2023-03-25T07:41:51;10.90;99.90
21612;DHT22;47005;52.292;13.452;2023-03-25T07:44:17;10.90;99.90
21612;DHT22;47005;52.292;13.452;2023-03-25T07:46:47;10.90;99.90
21612;DHT22;47005;52.292;13.452;2023-03-25T07:49:14;10.90;99.90
21612;DHT22;47005;52.292;13.452;2023-03-25T07:51:41;10.90;99.90
21612;DHT22;47005;52.292;13.452;2023-03-25T07:54:07;10.90;99.90
21612;DHT22;47005;52.292;13.452;2023-03-25T07:56:33;10.90;99.90
21612;DHT22;47005;52.292;13.452;2023-03-25T07:58:58;10.90;99.90
21612;DHT22;47005;52.292;13.452;2023-03-25T08:01:24;10.90;99.90
21612;DHT22;47005;52.292;13.452;2023-03-25T08:03:49;11.00;99.90
21612;DHT22;47005;52.292;13.452;2023-03-25T08:06:15;11.00;99.90
21612;DHT22;47005;52.292;13.452;2023-03-25T08:08:41;11.00;99.90
21612;DHT22;47005;52.292;13.452;2023-03-25T08:11:07;11.10;99.90
21612;DHT22;47005;52.292;13.452;2023-03-25T08:13:33;11.10;99.90
21612;DHT22;47005;52.292;13.452;2023-03-25T08:15:58;11.20;99.90
21612;DHT22;47005;52.292;13.452;2023-03-25T08:18:24;11.20;99.90
21612;DHT22;47005;52.292;13.452;2023-03-25T08:20:50;11.30;99.90
21612;DHT22;47005;52.292;13.452;2023-03-25T08:23:17;11.40;99.90
21612;DHT22;47005;52.292;13.452;2023-03-25T08:25:45;11.40;99.90
21612;DHT22;47005;52.292;13.452;2023-03-25T08:28:17;11.50;99.90
21612;DHT22;47005;52.292;13.452;2023-03-25T08:30:50;11.60;99.90
21612;DHT22;47005;52.292;13.452;2023-03-25T08:33:20;11.70;99.90
21612;DHT22;47005;52.292;13.452;2023-03-25T08:35:46;11.70;99.90
21612;DHT22;47005;52.292;13.452;2023-03-25T08:38:11;11.80;99.60
21612;DHT22;47005;52.292;13.452;2023-03-25T08:40:41;11.80;99.30
21612;DHT22;47005;52.292;13.452;2023-03-25T08:43:07;11.80;99.00
21612;DHT22;47005;52.292;13.452;2023-03-25T08:45:33;11.70;99.00
21612;DHT22;47005;52.292;13.452;2023-03-25T08:48:00;11.80;98.40
21612;DHT22;47005;52.292;13.452;2023-03-25T08:50:26;11.80;98.70
21612;DHT22;47005;52.292;13.452;2023-03-25T08:52:52;11.80;98.80
21612;DHT22;47005;52.292;13.452;2023-03-25T08:55:19;11.80;98.40
21612;DHT22;47005;52.292;13.452;2023-03-25T08:57:44;11.80;98.40
21612;DHT22;47005;52.292;13.452;2023-03-25T09:00:11;11.80;98.50
21612;DHT22;47005;52.292;13.452;2023-03-25T09:02:37;11.90;97.50
21612;DHT22;47005;52.292;13.452;2023-03-25T09:05:03;11.90;97.30
21612;DHT22;47005;52.292;13.452;2023-03-25T09:07:29;11.90;97.30
21612;DHT22;47005;52.292;13.452;2023-03-25T09:09:55;11.90;97.10
21612;DHT22;47005;52.292;13.452;2023-03-25T09:12:21;11.90;97.00
21612;DHT22;47005;52.292;13.452;2023-03-25T09:14:46;11.90;97.00
21612;DHT22;47005;52.292;13.452;2023-03-25T09:17:12;12.00;96.70
21612;DHT22;47005;52.292;13.452;2023-03-25T09:19:38;12.00;96.60
21612;DHT22;47005;52.292;13.452;2023-03-25T09:22:04;12.00;96.40
21612;DHT22;47005;52.292;13.452;2023-03-25T09:24:30;12.10;96.50
21612;DHT22;47005;52.292;13.452;2023-03-25T09:26:59;12.10;96.50
21612;DHT22;47005;52.292;13.452;2023-03-25T09:29:26;12.10;96.50
21612;DHT22;47005;52.292;13.452;2023-03-25T09:31:51;12.10;96.20
21612;DHT22;47005;52.292;13.452;2023-03-25T09:34:17;12.20;96.20
21612;DHT22;47005;52.292;13.452;2023-03-25T09:36:43;12.20;95.70
21612;DHT22;47005;52.292;13.452;2023-03-25T09:39:10;12.20;95.60
21612;DHT22;47005;52.292;13.452;2023-03-25T09:47:23;12.20;96.00
21612;DHT22;47005;52.292;13.452;2023-03-25T09:49:54;12.20;95.90
21612;DHT22;47005;52.292;13.452;2023-03-25T09:52:32;12.20;95.70
21612;DHT22;47005;52.292;13.452;2023-03-25T09:55:03;12.20;95.50
21612;DHT22;47005;52.292;13.452;2023-03-25T09:57:30;12.30;95.00
21612;DHT22;47005;52.292;13.452;2023-03-25T09:59:59;12.20;94.00
21612;DHT22;47005;52.292;13.452;2023-03-25T10:08:28;12.30;95.10
21612;DHT22;47005;52.292;13.452;2023-03-25T10:11:11;12.30;95.30
21612;DHT22;47005;52.292;13.452;2023-03-25T10:13:54;12.30;95.80
21612;DHT22;47005;52.292;13.452;2023-03-25T10:24:19;12.30;94.00
21612;DHT22;47005;52.292;13.452;2023-03-25T10:29:38;12.40;93.70
21612;DHT22;47005;52.292;13.452;2023-03-25T10:32:14;12.40;92.60
21612;DHT22;47005;52.292;13.452;2023-03-25T10:34:50;12.50;92.90
21612;DHT22;47005;52.292;13.452;2023-03-25T10:37:33;12.50;93.20
21612;DHT22;47005;52.292;13.452;2023-03-25T10:46:04;12.50;92.90
21612;DHT22;47005;52.292;13.452;2023-03-25T10:48:31;12.60;92.90
21612;DHT22;47005;52.292;13.452;2023-03-25T10:53:29;12.70;92.60
21612;DHT22;47005;52.292;13.452;2023-03-25T10:58:31;12.70;92.90
21612;DHT22;47005;52.292;13.452;2023-03-25T11:00:59;12.80;93.40
21612;DHT22;47005;52.292;13.452;2023-03-25T11:03:33;12.80;92.50
21612;DHT22;47005;52.292;13.452;2023-03-25T11:05:59;12.80;91.90
21612;DHT22;47005;52.292;13.452;2023-03-25T11:08:25;12.70;98.60
21612;DHT22;47005;52.292;13.452;2023-03-25T11:10:52;12.70;99.90
21612;DHT22;47005;52.292;13.452;2023-03-25T11:13:29;12.60;99.90
21612;DHT22;47005;52.292;13.452;2023-03-25T11:15:58;12.40;99.90
21612;DHT22;47005;52.292;13.452;2023-03-25T11:18:28;12.10;99.90
21612;DHT22;47005;52.292;13.452;2023-03-25T11:21:14;12.10;99.90
21612;DHT22;47005;52.292;13.452;2023-03-25T11:23:47;11.90;99.90
21612;DHT22;47005;52.292;13.452;2023-03-25T11:26:29;11.90;99.90
21612;DHT22;47005;52.292;13.452;2023-03-25T11:29:08;11.80;99.90
21612;DHT22;47005;52.292;13.452;2023-03-25T11:31:36;11.80;99.90
21612;DHT22;47005;52.292;13.452;2023-03-25T11:36:52;11.80;99.90
21612;DHT22;47005;52.292;13.452;2023-03-25T11:41:47;11.80;99.90
21612;DHT22;47005;52.292;13.452;2023-03-25T11:44:30;11.90;99.90
21612;DHT22;47005;52.292;13.452;2023-03-25T11:47:03;12.00;99.90
21612;DHT22;47005;52.292;13.452;2023-03-25T11:49:33;12.10;99.50
21612;DHT22;47005;52.292;13.452;2023-03-25T11:54:30;12.20;97.00
21612;DHT22;47005;52.292;13.452;2023-03-25T11:56:57;12.30;97.30
21612;DHT22;47005;52.292;13.452;2023-03-25T11:59:36;12.40;96.60
21612;DHT22;47005;52.292;13.452;2023-03-25T12:04:56;12.60;96.10
21612;DHT22;47005;52.292;13.452;2023-03-25T12:07:22;12.70;95.50
21612;DHT22;47005;52.292;13.452;2023-03-25T12:09:57;12.70;96.30
21612;DHT22;47005;52.292;13.452;2023-03-25T12:15:16;13.00;95.30
21612;DHT22;47005;52.292;13.452;2023-03-25T12:18:05;13.20;94.80
21612;DHT22;47005;52.292;13.452;2023-03-25T12:23:21;13.30;93.30
21612;DHT22;47005;52.292;13.452;2023-03-25T12:26:08;13.40;93.70
21612;DHT22;47005;52.292;13.452;2023-03-25T12:29:14;13.40;92.90
21612;DHT22;47005;52.292;13.452;2023-03-25T12:37:33;13.30;92.70
21612;DHT22;47005;52.292;13.452;2023-03-25T12:48:17;13.40;93.30
21612;DHT22;47005;52.292;13.452;2023-03-25T12:51:08;13.50;92.40
21612;DHT22;47005;52.292;13.452;2023-03-25T12:53:53;13.50;92.10
21612;DHT22;47005;52.292;13.452;2023-03-25T12:56:57;13.60;91.60
21612;DHT22;47005;52.292;13.452;2023-03-25T13:07:27;13.30;99.90
21612;DHT22;47005;52.292;13.452;2023-03-25T13:10:18;13.20;99.90
21612;DHT22;47005;52.292;13.452;2023-03-25T13:12:53;13.00;99.90
21612;DHT22;47005;52.292;13.452;2023-03-25T13:15:20;12.80;99.90
21612;DHT22;47005;52.292;13.452;2023-03-25T13:17:51;12.60;99.90
21612;DHT22;47005;52.292;13.452;2023-03-25T13:20:21;12.50;99.90
21612;DHT22;47005;52.292;13.452;2023-03-25T13:22:52;12.40;99.90
21612;DHT22;47005;52.292;13.452;2023-03-25T13:25:51;12.30;99.90
21612;DHT22;47005;52.292;13.452;2023-03-25T13:28:31;12.20;99.90
21612;DHT22;47005;52.292;13.452;2023-03-25T13:31:04;12.10;99.90
21612;DHT22;47005;52.292;13.452;2023-03-25T13:33:35;12.10;99.90
21612;DHT22;47005;52.292;13.452;2023-03-25T13:36:16;12.10;99.90
21612;DHT22;47005;52.292;13.452;2023-03-25T13:38:51;12.10;99.90
21612;DHT22;47005;52.292;13.452;2023-03-25T13:41:32;12.20;99.90
21612;DHT22;47005;52.292;13.452;2023-03-25T13:44:11;12.20;99.90
21612;DHT22;47005;52.292;13.452;2023-03-25T13:49:40;12.20;99.90
21612;DHT22;47005;52.292;13.452;2023-03-25T13:52:09;12.30;99.90
21612;DHT22;47005;52.292;13.452;2023-03-25T13:54:38;12.20;99.90
21612;DHT22;47005;52.292;13.452;2023-03-25T13:57:46;12.20;99.90
21612;DHT22;47005;52.292;13.452;2023-03-25T14:06:42;11.90;99.90
21612;DHT22;47005;52.292;13.452;2023-03-25T14:12:20;11.70;99.90
21612;DHT22;47005;52.292;13.452;2023-03-25T14:15:14;11.50;99.90
21612;DHT22;47005;52.292;13.452;2023-03-25T14:17:42;11.40;99.90
21612;DHT22;47005;52.292;13.452;2023-03-25T14:20:11;11.30;99.90
21612;DHT22;47005;52.292;13.452;2023-03-25T14:22:42;11.20;99.90
21612;DHT22;47005;52.292;13.452;2023-03-25T14:28:39;11.20;99.90
21612;DHT22;47005;52.292;13.452;2023-03-25T14:44:39;11.10;99.90
21612;DHT22;47005;52.292;13.452;2023-03-25T14:52:44;11.60;99.90
21612;DHT22;47005;52.292;13.452;2023-03-25T14:55:20;11.90;99.90
21612;DHT22;47005;52.292;13.452;2023-03-25T14:57:56;12.30;99.90
21612;DHT22;47005;52.292;13.452;2023-03-25T15:00:25;12.50;99.90
21612;DHT22;47005;52.292;13.452;2023-03-25T15:03:27;12.80;99.90
21612;DHT22;47005;52.292;13.452;2023-03-25T15:05:56;13.10;99.90
21612;DHT22;47005;52.292;13.452;2023-03-25T15:08:35;13.20;99.90
21612;DHT22;47005;52.292;13.452;2023-03-25T15:11:11;13.40;99.90
21612;DHT22;47005;52.292;13.452;2023-03-25T15:13:41;13.40;99.90
21612;DHT22;47005;52.292;13.452;2023-03-25T15:19:16;13.70;99.90
21612;DHT22;47005;52.292;13.452;2023-03-25T15:24:32;13.80;99.90
21612;DHT22;47005;52.292;13.452;2023-03-25T15:35:33;13.60;99.90
21612;DHT22;47005;52.292;13.452;2023-03-25T15:43:40;13.70;99.90
21612;DHT22;47005;52.292;13.452;2023-03-25T15:55:18;13.80;99.90
21612;DHT22;47005;52.292;13.452;2023-03-25T15:57:56;13.70;99.90
21612;DHT22;47005;52.292;13.452;2023-03-25T16:00:58;13.60;99.90
21612;DHT22;47005;52.292;13.452;2023-03-25T16:03:28;13.40;99.90
21612;DHT22;47005;52.292;13.452;2023-03-25T16:05:57;13.40;99.90
21612;DHT22;47005;52.292;13.452;2023-03-25T16:08:30;13.30;99.90
21612;DHT22;47005;52.292;13.452;2023-03-25T16:11:12;13.30;99.90
21612;DHT22;47005;52.292;13.452;2023-03-25T16:13:38;13.30;99.90
21612;DHT22;47005;52.292;13.452;2023-03-25T16:16:04;13.20;99.90
21612;DHT22;47005;52.292;13.452;2023-03-25T16:18:31;13.20;99.90
21612;DHT22;47005;52.292;13.452;2023-03-25T16:20:59;13.10;99.90
21612;DHT22;47005;52.292;13.452;2023-03-25T16:23:26;13.00;99.90
21612;DHT22;47005;52.292;13.452;2023-03-25T16:25:54;13.00;99.90
21612;DHT22;47005;52.292;13.452;2023-03-25T16:28:40;12.90;99.90
21612;DHT22;47005;52.292;13.452;2023-03-25T16:31:28;12.90;99.90
21612;DHT22;47005;52.292;13.452;2023-03-25T16:33:58;12.80;99.90
21612;DHT22;47005;52.292;13.452;2023-03-25T16:36:24;12.80;99.90
21612;DHT22;47005;52.292;13.452;2023-03-25T16:38:50;12.70;99.90
21612;DHT22;47005;52.292;13.452;2023-03-25T16:41:16;12.60;99.90
21612;DHT22;47005;52.292;13.452;2023-03-25T16:43:42;12.60;99.90
21612;DHT22;47005;52.292;13.452;2023-03-25T16:46:10;12.60;99.90
21612;DHT22;47005;52.292;13.452;2023-03-25T16:48:48;12.60;99.90
21612;DHT22;47005;52.292;13.452;2023-03-25T16:51:20;12.60;99.90
21612;DHT22;47005;52.292;13.452;2023-03-25T16:53:49;12.60;99.90
21612;DHT22;47005;52.292;13.452;2023-03-25T16:59:01;12.60;99.90
21612;DHT22;47005;52.292;13.452;2023-03-25T17:01:35;12.70;99.90
21612;DHT22;47005;52.292;13.452;2023-03-25T17:04:20;12.60;99.90
21612;DHT22;47005;52.292;13.452;2023-03-25T17:07:02;12.60;99.90
21612;DHT22;47005;52.292;13.452;2023-03-25T17:09:34;12.50;99.90
21612;DHT22;47005;52.292;13.452;2023-03-25T17:12:18;12.50;99.90
21612;DHT22;47005;52.292;13.452;2023-03-25T17:14:46;12.40;99.90
21612;DHT22;47005;52.292;13.452;2023-03-25T17:20:01;12.50;99.90
21612;DHT22;47005;52.292;13.452;2023-03-25T17:22:36;12.40;99.90
21612;DHT22;47005;52.292;13.452;2023-03-25T17:27:48;12.30;99.90
21612;DHT22;47005;52.292;13.452;2023-03-25T17:30:36;12.30;99.90
21612;DHT22;47005;52.292;13.452;2023-03-25T17:33:17;12.30;99.90
21612;DHT22;47005;52.292;13.452;2023-03-25T17:35:52;12.30;99.90
21612;DHT22;47005;52.292;13.452;2023-03-25T17:38:30;12.30;99.90
21612;DHT22;47005;52.292;13.452;2023-03-25T17:41:04;12.30;99.90
21612;DHT22;47005;52.292;13.452;2023-03-25T17:43:48;12.30;99.90
21612;DHT22;47005;52.292;13.452;2023-03-25T17:46:23;12.30;99.90
21612;DHT22;47005;52.292;13.452;2023-03-25T17:48:50;12.30;99.90
21612;DHT22;47005;52.292;13.452;2023-03-25T17:51:18;12.20;99.90
21612;DHT22;47005;52.292;13.452;2023-03-25T17:53:46;12.20;99.90
21612;DHT22;47005;52.292;13.452;2023-03-25T17:56:12;12.20;99.90
21612;DHT22;47005;52.292;13.452;2023-03-25T17:58:40;12.10;99.90
21612;DHT22;47005;52.292;13.452;2023-03-25T18:01:07;12.10;99.90
21612;DHT22;47005;52.292;13.452;2023-03-25T18:03:34;12.10;99.90
21612;DHT22;47005;52.292;13.452;2023-03-25T18:06:00;12.10;99.90
21612;DHT22;47005;52.292;13.452;2023-03-25T18:08:26;12.10;99.90
21612;DHT22;47005;52.292;13.452;2023-03-25T18:10:53;12.10;99.90
21612;DHT22;47005;52.292;13.452;2023-03-25T18:13:20;12.10;99.90
21612;DHT22;47005;52.292;13.452;2023-03-25T18:15:47;12.10;99.90
21612;DHT22;47005;52.292;13.452;2023-03-25T18:18:22;12.10;99.90
21612;DHT22;47005;52.292;13.452;2023-03-25T18:20:52;12.00;99.90
21612;DHT22;47005;52.292;13.452;2023-03-25T18:23:19;12.00;99.90
21612;DHT22;47005;52.292;13.452;2023-03-25T18:25:44;12.00;99.90
21612;DHT22;47005;52.292;13.452;2023-03-25T18:28:11;11.90;99.90
21612;DHT22;47005;52.292;13.452;2023-03-25T18:30:54;11.90;99.90
21612;DHT22;47005;52.292;13.452;2023-03-25T18:33:21;11.90;99.90
21612;DHT22;47005;52.292;13.452;2023-03-25T18:35:47;11.90;99.90
21612;DHT22;47005;52.292;13.452;2023-03-25T18:38:23;11.80;99.90
21612;DHT22;47005;52.292;13.452;2023-03-25T18:40:51;11.80;99.90
21612;DHT22;47005;52.292;13.452;2023-03-25T18:43:17;11.80;99.90
21612;DHT22;47005;52.292;13.452;2023-03-25T18:45:44;11.80;99.90